sensor_id;sensor_type;location;lat;lon;timestamp;temperature;humidity
29917;DHT22;16786;49.466;11.068;2022-11-15T00:01:48;7.50;99.90
29917;DHT22;16786;49.466;11.068;2022-11-15T00:04:34;7.50;99.90
29917;DHT22;16786;49.466;11.068;2022-11-15T00:07:21;7.60;99.90
29917;DHT22;16786;49.466;11.068;2022-11-15T00:10:27;7.50;99.90
29917;DHT22;16786;49.466;11.068;2022-11-15T00:13:14;7.60;99.90
29917;DHT22;16786;49.466;11.068;2022-11-15T00:16:01;7.60;99.90
29917;DHT22;16786;49.466;11.068;2022-11-15T00:18:47;7.60;99.90
29917;DHT22;16786;49.466;11.068;2022-11-15T00:21:35;7.60;99.90
29917;DHT22;16786;49.466;11.068;2022-11-15T00:24:21;7.70;99.90
29917;DHT22;16786;49.466;11.068;2022-11-15T00:27:07;7.70;99.90
29917;DHT22;16786;49.466;11.068;2022-11-15T00:29:53;7.80;99.90
29917;DHT22;16786;49.466;11.068;2022-11-15T00:32:39;7.80;99.90
29917;DHT22;16786;49.466;11.068;2022-11-15T00:35:25;7.80;99.90
29917;DHT22;16786;49.466;11.068;2022-11-15T00:38:10;7.70;99.90
29917;DHT22;16786;49.466;11.068;2022-11-15T00:40:57;7.70;99.90
29917;DHT22;16786;49.466;11.068;2022-11-15T00:43:43;7.70;99.90
29917;DHT22;16786;49.466;11.068;2022-11-15T00:46:29;7.60;99.90
29917;DHT22;16786;49.466;11.068;2022-11-15T00:49:15;7.60;99.90
29917;DHT22;16786;49.466;11.068;2022-11-15T00:52:01;7.50;99.90
29917;DHT22;16786;49.466;11.068;2022-11-15T00:54:46;7.50;99.90
29917;DHT22;16786;49.466;11.068;2022-11-15T00:57:32;7.50;99.90
29917;DHT22;16786;49.466;11.068;2022-11-15T01:00:18;7.50;99.90
29917;DHT22;16786;49.466;11.068;2022-11-15T01:03:04;7.50;99.90
29917;DHT22;16786;49.466;11.068;2022-11-15T01:05:50;7.50;99.90
29917;DHT22;16786;49.466;11.068;2022-11-15T01:08:36;7.50;99.90
29917;DHT22;16786;49.466;11.068;2022-11-15T01:11:23;7.50;99.90
29917;DHT22;16786;49.466;11.068;2022-11-15T01:14:08;7.40;99.90
29917;DHT22;16786;49.466;11.068;2022-11-15T01:16:54;7.40;99.90
29917;DHT22;16786;49.466;11.068;2022-11-15T01:19:40;7.30;99.90
29917;DHT22;16786;49.466;11.068;2022-11-15T01:22:27;7.30;99.90
29917;DHT22;16786;49.466;11.068;2022-11-15T01:25:12;7.30;99.90
29917;DHT22;16786;49.466;11.068;2022-11-15T01:27:59;7.30;99.90
29917;DHT22;16786;49.466;11.068;2022-11-15T01:30:45;7.30;99.90
29917;DHT22;16786;49.466;11.068;2022-11-15T01:33:34;7.30;99.90
29917;DHT22;16786;49.466;11.068;2022-11-15T01:36:22;7.30;99.90
29917;DHT22;16786;49.466;11.068;2022-11-15T01:39:09;7.20;99.90
29917;DHT22;16786;49.466;11.068;2022-11-15T01:41:55;7.20;99.90
29917;DHT22;16786;49.466;11.068;2022-11-15T01:44:44;7.10;99.90
29917;DHT22;16786;49.466;11.068;2022-11-15T01:47:34;7.10;99.90
29917;DHT22;16786;49.466;11.068;2022-11-15T01:50:27;7.10;99.90
29917;DHT22;16786;49.466;11.068;2022-11-15T01:53:16;7.00;99.90
29917;DHT22;16786;49.466;11.068;2022-11-15T01:56:07;7.00;99.90
29917;DHT22;16786;49.466;11.068;2022-11-15T01:58:55;7.00;99.90
29917;DHT22;16786;49.466;11.068;2022-11-15T02:01:42;7.00;99.90
29917;DHT22;16786;49.466;11.068;2022-11-15T02:04:32;7.00;99.90
29917;DHT22;16786;49.466;11.068;2022-11-15T02:07:20;7.00;99.90
29917;DHT22;16786;49.466;11.068;2022-11-15T02:10:17;7.00;99.90
29917;DHT22;16786;49.466;11.068;2022-11-15T02:13:03;7.00;99.90
29917;DHT22;16786;49.466;11.068;2022-11-15T02:34:57;7.10;99.90
29917;DHT22;16786;49.466;11.068;2022-11-15T02:37:56;7.10;99.90
29917;DHT22;16786;49.466;11.068;2022-11-15T02:41:27;7.10;99.90
29917;DHT22;16786;49.466;11.068;2022-11-15T02:44:31;7.10;99.90
29917;DHT22;16786;49.466;11.068;2022-11-15T02:47:16;7.00;99.90
29917;DHT22;16786;49.466;11.068;2022-11-15T02:50:11;6.90;99.90
29917;DHT22;16786;49.466;11.068;2022-11-15T02:52:58;6.90;99.90
29917;DHT22;16786;49.466;11.068;2022-11-15T02:55:46;6.80;99.90
29917;DHT22;16786;49.466;11.068;2022-11-15T02:59:13;6.80;99.90
29917;DHT22;16786;49.466;11.068;2022-11-15T03:02:36;6.70;99.90
29917;DHT22;16786;49.466;11.068;2022-11-15T03:08:55;6.60;99.90
29917;DHT22;16786;49.466;11.068;2022-11-15T03:11:48;6.50;99.90
29917;DHT22;16786;49.466;11.068;2022-11-15T03:14:56;6.50;99.90
29917;DHT22;16786;49.466;11.068;2022-11-15T03:17:55;6.50;99.90
29917;DHT22;16786;49.466;11.068;2022-11-15T03:20:42;6.40;99.90
29917;DHT22;16786;49.466;11.068;2022-11-15T03:23:30;6.40;99.90
29917;DHT22;16786;49.466;11.068;2022-11-15T03:26:19;6.30;99.90
29917;DHT22;16786;49.466;11.068;2022-11-15T03:29:14;6.30;99.90
29917;DHT22;16786;49.466;11.068;2022-11-15T03:32:16;6.30;99.90
29917;DHT22;16786;49.466;11.068;2022-11-15T03:35:10;6.20;99.90
29917;DHT22;16786;49.466;11.068;2022-11-15T03:38:17;6.20;99.90
29917;DHT22;16786;49.466;11.068;2022-11-15T03:41:08;6.20;99.90
29917;DHT22;16786;49.466;11.068;2022-11-15T03:47:32;6.10;99.90
29917;DHT22;16786;49.466;11.068;2022-11-15T03:50:20;6.10;99.90
29917;DHT22;16786;49.466;11.068;2022-11-15T03:53:08;6.10;99.90
29917;DHT22;16786;49.466;11.068;2022-11-15T03:55:53;6.10;99.90
29917;DHT22;16786;49.466;11.068;2022-11-15T03:58:39;6.20;99.90
29917;DHT22;16786;49.466;11.068;2022-11-15T04:01:26;6.30;99.90
29917;DHT22;16786;49.466;11.068;2022-11-15T04:04:12;6.30;99.90
29917;DHT22;16786;49.466;11.068;2022-11-15T04:06:57;6.30;99.90
29917;DHT22;16786;49.466;11.068;2022-11-15T04:09:43;6.30;99.90
29917;DHT22;16786;49.466;11.068;2022-11-15T04:12:47;6.30;99.90
29917;DHT22;16786;49.466;11.068;2022-11-15T04:15:34;6.30;99.90
29917;DHT22;16786;49.466;11.068;2022-11-15T04:18:19;6.30;99.90
29917;DHT22;16786;49.466;11.068;2022-11-15T04:21:07;6.30;99.90
29917;DHT22;16786;49.466;11.068;2022-11-15T04:24:12;6.20;99.90
29917;DHT22;16786;49.466;11.068;2022-11-15T04:26:59;6.20;99.90
29917;DHT22;16786;49.466;11.068;2022-11-15T04:29:45;6.20;99.90
29917;DHT22;16786;49.466;11.068;2022-11-15T04:32:31;6.10;99.90
29917;DHT22;16786;49.466;11.068;2022-11-15T04:35:16;6.10;99.90
29917;DHT22;16786;49.466;11.068;2022-11-15T04:38:04;6.10;99.90
29917;DHT22;16786;49.466;11.068;2022-11-15T04:40:50;6.00;99.90
29917;DHT22;16786;49.466;11.068;2022-11-15T04:43:36;6.10;99.90
29917;DHT22;16786;49.466;11.068;2022-11-15T04:46:22;6.00;99.90
29917;DHT22;16786;49.466;11.068;2022-11-15T04:49:09;6.00;99.90
29917;DHT22;16786;49.466;11.068;2022-11-15T04:51:55;6.00;99.90
29917;DHT22;16786;49.466;11.068;2022-11-15T04:54:41;5.90;99.90
29917;DHT22;16786;49.466;11.068;2022-11-15T04:57:28;5.90;99.90
29917;DHT22;16786;49.466;11.068;2022-11-15T05:00:16;5.80;99.90
29917;DHT22;16786;49.466;11.068;2022-11-15T05:03:03;5.90;99.90
29917;DHT22;16786;49.466;11.068;2022-11-15T05:06:07;5.80;99.90
29917;DHT22;16786;49.466;11.068;2022-11-15T05:08:54;5.80;99.90
29917;DHT22;16786;49.466;11.068;2022-11-15T05:11:41;5.80;99.90
29917;DHT22;16786;49.466;11.068;2022-11-15T05:14:27;5.70;99.90
29917;DHT22;16786;49.466;11.068;2022-11-15T05:17:13;5.80;99.90
29917;DHT22;16786;49.466;11.068;2022-11-15T05:19:58;5.80;99.90
29917;DHT22;16786;49.466;11.068;2022-11-15T05:22:44;5.80;99.90
29917;DHT22;16786;49.466;11.068;2022-11-15T05:25:29;5.80;99.90
29917;DHT22;16786;49.466;11.068;2022-11-15T05:28:15;5.80;99.90
29917;DHT22;16786;49.466;11.068;2022-11-15T05:31:08;5.70;99.90
29917;DHT22;16786;49.466;11.068;2022-11-15T05:33:54;5.70;99.90
29917;DHT22;16786;49.466;11.068;2022-11-15T05:36:42;5.70;99.90
29917;DHT22;16786;49.466;11.068;2022-11-15T05:39:28;5.70;99.90
29917;DHT22;16786;49.466;11.068;2022-11-15T05:42:15;5.70;99.90
29917;DHT22;16786;49.466;11.068;2022-11-15T05:45:03;5.70;99.90
29917;DHT22;16786;49.466;11.068;2022-11-15T05:47:51;5.70;99.90
29917;DHT22;16786;49.466;11.068;2022-11-15T05:50:40;5.70;99.90
29917;DHT22;16786;49.466;11.068;2022-11-15T05:53:27;5.70;99.90
29917;DHT22;16786;49.466;11.068;2022-11-15T05:56:14;5.70;99.90
29917;DHT22;16786;49.466;11.068;2022-11-15T05:59:00;5.80;99.90
29917;DHT22;16786;49.466;11.068;2022-11-15T06:01:46;5.90;99.90
29917;DHT22;16786;49.466;11.068;2022-11-15T06:04:32;5.90;99.90
29917;DHT22;16786;49.466;11.068;2022-11-15T06:07:18;5.90;99.90
29917;DHT22;16786;49.466;11.068;2022-11-15T06:10:05;5.90;99.90
29917;DHT22;16786;49.466;11.068;2022-11-15T06:13:01;5.90;99.90
29917;DHT22;16786;49.466;11.068;2022-11-15T06:15:48;5.90;99.90
29917;DHT22;16786;49.466;11.068;2022-11-15T06:18:34;5.90;99.90
29917;DHT22;16786;49.466;11.068;2022-11-15T06:21:21;5.90;99.90
29917;DHT22;16786;49.466;11.068;2022-11-15T06:24:07;5.90;99.90
29917;DHT22;16786;49.466;11.068;2022-11-15T06:26:53;5.90;99.90
29917;DHT22;16786;49.466;11.068;2022-11-15T06:29:39;5.90;99.90
29917;DHT22;16786;49.466;11.068;2022-11-15T06:32:25;6.00;99.90
29917;DHT22;16786;49.466;11.068;2022-11-15T06:35:10;6.10;99.90
29917;DHT22;16786;49.466;11.068;2022-11-15T06:38:04;6.10;99.90
29917;DHT22;16786;49.466;11.068;2022-11-15T06:40:51;6.10;99.90
29917;DHT22;16786;49.466;11.068;2022-11-15T06:43:37;6.10;99.90
29917;DHT22;16786;49.466;11.068;2022-11-15T06:46:23;6.10;99.90
29917;DHT22;16786;49.466;11.068;2022-11-15T06:49:09;6.20;99.90
29917;DHT22;16786;49.466;11.068;2022-11-15T06:51:55;6.20;99.90
29917;DHT22;16786;49.466;11.068;2022-11-15T06:54:41;6.20;99.90
29917;DHT22;16786;49.466;11.068;2022-11-15T06:57:27;6.30;99.90
29917;DHT22;16786;49.466;11.068;2022-11-15T07:00:13;6.30;99.90
29917;DHT22;16786;49.466;11.068;2022-11-15T07:03:00;6.40;99.90
29917;DHT22;16786;49.466;11.068;2022-11-15T07:05:54;6.50;99.90
29917;DHT22;16786;49.466;11.068;2022-11-15T07:08:40;6.50;99.90
29917;DHT22;16786;49.466;11.068;2022-11-15T07:11:27;6.60;99.90
29917;DHT22;16786;49.466;11.068;2022-11-15T07:14:13;6.60;99.90
29917;DHT22;16786;49.466;11.068;2022-11-15T07:16:59;6.70;99.90
29917;DHT22;16786;49.466;11.068;2022-11-15T07:19:45;6.90;99.90
29917;DHT22;16786;49.466;11.068;2022-11-15T07:22:31;6.90;99.90
29917;DHT22;16786;49.466;11.068;2022-11-15T07:25:16;7.00;99.90
29917;DHT22;16786;49.466;11.068;2022-11-15T07:28:02;7.00;99.90
29917;DHT22;16786;49.466;11.068;2022-11-15T07:30:48;7.10;99.90
29917;DHT22;16786;49.466;11.068;2022-11-15T07:33:35;7.10;99.90
29917;DHT22;16786;49.466;11.068;2022-11-15T07:36:21;7.20;99.90
29917;DHT22;16786;49.466;11.068;2022-11-15T07:39:08;7.30;99.90
29917;DHT22;16786;49.466;11.068;2022-11-15T07:41:53;7.40;99.90
29917;DHT22;16786;49.466;11.068;2022-11-15T07:44:59;7.50;99.90
29917;DHT22;16786;49.466;11.068;2022-11-15T07:47:49;7.60;99.90
29917;DHT22;16786;49.466;11.068;2022-11-15T07:50:35;7.70;99.90
29917;DHT22;16786;49.466;11.068;2022-11-15T07:53:21;7.70;99.90
29917;DHT22;16786;49.466;11.068;2022-11-15T07:56:07;7.80;99.90
29917;DHT22;16786;49.466;11.068;2022-11-15T07:58:54;7.80;99.90
29917;DHT22;16786;49.466;11.068;2022-11-15T08:01:40;7.90;99.90
29917;DHT22;16786;49.466;11.068;2022-11-15T08:04:26;8.00;99.90
29917;DHT22;16786;49.466;11.068;2022-11-15T08:07:12;8.00;99.90
29917;DHT22;16786;49.466;11.068;2022-11-15T08:09:58;8.10;99.90
29917;DHT22;16786;49.466;11.068;2022-11-15T08:12:46;8.20;99.90
29917;DHT22;16786;49.466;11.068;2022-11-15T08:15:33;8.40;99.90
29917;DHT22;16786;49.466;11.068;2022-11-15T08:18:19;8.50;99.90
29917;DHT22;16786;49.466;11.068;2022-11-15T08:21:05;8.60;99.90
29917;DHT22;16786;49.466;11.068;2022-11-15T08:23:51;8.70;99.90
29917;DHT22;16786;49.466;11.068;2022-11-15T08:26:37;8.80;99.90
29917;DHT22;16786;49.466;11.068;2022-11-15T08:29:23;8.90;99.90
29917;DHT22;16786;49.466;11.068;2022-11-15T08:32:10;9.00;99.90
29917;DHT22;16786;49.466;11.068;2022-11-15T08:34:56;9.20;99.90
29917;DHT22;16786;49.466;11.068;2022-11-15T08:37:42;9.40;99.90
29917;DHT22;16786;49.466;11.068;2022-11-15T08:40:28;9.50;99.90
29917;DHT22;16786;49.466;11.068;2022-11-15T08:43:13;9.60;99.90
29917;DHT22;16786;49.466;11.068;2022-11-15T08:45:59;9.80;99.90
29917;DHT22;16786;49.466;11.068;2022-11-15T08:48:45;10.00;99.90
29917;DHT22;16786;49.466;11.068;2022-11-15T08:51:31;10.20;99.90
29917;DHT22;16786;49.466;11.068;2022-11-15T08:54:17;10.40;99.90
29917;DHT22;16786;49.466;11.068;2022-11-15T08:57:02;10.50;99.90
29917;DHT22;16786;49.466;11.068;2022-11-15T08:59:48;10.70;99.90
29917;DHT22;16786;49.466;11.068;2022-11-15T09:02:34;10.90;99.90
29917;DHT22;16786;49.466;11.068;2022-11-15T09:05:23;11.00;99.90
29917;DHT22;16786;49.466;11.068;2022-11-15T09:08:09;11.20;99.90
29917;DHT22;16786;49.466;11.068;2022-11-15T09:11:15;11.40;99.90
29917;DHT22;16786;49.466;11.068;2022-11-15T09:14:03;11.50;99.90
29917;DHT22;16786;49.466;11.068;2022-11-15T09:16:49;11.60;99.90
29917;DHT22;16786;49.466;11.068;2022-11-15T09:19:35;11.70;99.90
29917;DHT22;16786;49.466;11.068;2022-11-15T09:22:22;11.90;99.90
29917;DHT22;16786;49.466;11.068;2022-11-15T09:25:08;12.00;99.90
29917;DHT22;16786;49.466;11.068;2022-11-15T09:27:56;12.10;99.90
29917;DHT22;16786;49.466;11.068;2022-11-15T09:30:42;12.20;99.90
29917;DHT22;16786;49.466;11.068;2022-11-15T09:33:29;12.20;99.90
29917;DHT22;16786;49.466;11.068;2022-11-15T09:36:16;12.40;99.90
29917;DHT22;16786;49.466;11.068;2022-11-15T09:39:02;12.50;99.90
29917;DHT22;16786;49.466;11.068;2022-11-15T09:45:15;12.70;99.90
29917;DHT22;16786;49.466;11.068;2022-11-15T09:48:23;12.80;99.90
29917;DHT22;16786;49.466;11.068;2022-11-15T09:54:26;13.00;99.90
29917;DHT22;16786;49.466;11.068;2022-11-15T09:57:44;13.10;99.90
29917;DHT22;16786;49.466;11.068;2022-11-15T10:03:33;13.40;99.90
29917;DHT22;16786;49.466;11.068;2022-11-15T10:06:04;13.60;99.90
29917;DHT22;16786;49.466;11.068;2022-11-15T10:11:17;14.00;99.90
29917;DHT22;16786;49.466;11.068;2022-11-15T10:14:17;14.00;99.90
29917;DHT22;16786;49.466;11.068;2022-11-15T10:19:54;14.40;99.90
29917;DHT22;16786;49.466;11.068;2022-11-15T10:22:45;14.50;99.90
29917;DHT22;16786;49.466;11.068;2022-11-15T10:25:28;14.70;99.90
29917;DHT22;16786;49.466;11.068;2022-11-15T10:30:54;15.60;99.90
29917;DHT22;16786;49.466;11.068;2022-11-15T10:33:38;17.00;99.90
29917;DHT22;16786;49.466;11.068;2022-11-15T10:38:56;18.50;99.90
29917;DHT22;16786;49.466;11.068;2022-11-15T10:46:35;18.50;99.90
29917;DHT22;16786;49.466;11.068;2022-11-15T10:49:30;18.80;99.90
29917;DHT22;16786;49.466;11.068;2022-11-15T10:52:17;19.10;99.90
29917;DHT22;16786;49.466;11.068;2022-11-15T10:54:59;19.70;99.90
29917;DHT22;16786;49.466;11.068;2022-11-15T10:57:32;20.00;99.90
29917;DHT22;16786;49.466;11.068;2022-11-15T11:05:35;20.90;99.90
29917;DHT22;16786;49.466;11.068;2022-11-15T11:10:55;21.30;99.90
29917;DHT22;16786;49.466;11.068;2022-11-15T11:13:33;21.70;99.90
29917;DHT22;16786;49.466;11.068;2022-11-15T11:19:28;21.60;99.90
29917;DHT22;16786;49.466;11.068;2022-11-15T11:22:18;21.70;99.90
29917;DHT22;16786;49.466;11.068;2022-11-15T11:25:04;22.10;99.90
29917;DHT22;16786;49.466;11.068;2022-11-15T11:27:54;22.30;98.50
29917;DHT22;16786;49.466;11.068;2022-11-15T11:30:45;22.40;97.90
29917;DHT22;16786;49.466;11.068;2022-11-15T11:33:31;22.80;97.40
29917;DHT22;16786;49.466;11.068;2022-11-15T11:36:22;23.30;95.80
29917;DHT22;16786;49.466;11.068;2022-11-15T11:42:02;22.80;95.60
29917;DHT22;16786;49.466;11.068;2022-11-15T11:49:53;22.40;95.00
29917;DHT22;16786;49.466;11.068;2022-11-15T11:52:55;23.30;94.60
29917;DHT22;16786;49.466;11.068;2022-11-15T11:55:42;23.30;94.10
29917;DHT22;16786;49.466;11.068;2022-11-15T11:58:16;23.30;93.60
29917;DHT22;16786;49.466;11.068;2022-11-15T12:09:35;24.00;91.70
29917;DHT22;16786;49.466;11.068;2022-11-15T12:12:15;24.20;91.00
29917;DHT22;16786;49.466;11.068;2022-11-15T12:14:46;23.90;90.80
29917;DHT22;16786;49.466;11.068;2022-11-15T12:17:19;23.60;91.40
29917;DHT22;16786;49.466;11.068;2022-11-15T12:19:48;23.80;91.40
29917;DHT22;16786;49.466;11.068;2022-11-15T12:22:38;24.20;91.00
29917;DHT22;16786;49.466;11.068;2022-11-15T12:25:18;24.40;90.30
29917;DHT22;16786;49.466;11.068;2022-11-15T12:28:03;24.30;90.70
29917;DHT22;16786;49.466;11.068;2022-11-15T12:33:30;24.10;90.30
29917;DHT22;16786;49.466;11.068;2022-11-15T12:36:00;23.60;90.80
29917;DHT22;16786;49.466;11.068;2022-11-15T12:41:18;23.00;91.80
29917;DHT22;16786;49.466;11.068;2022-11-15T12:43:47;23.00;91.80
29917;DHT22;16786;49.466;11.068;2022-11-15T12:49:03;22.90;92.00
29917;DHT22;16786;49.466;11.068;2022-11-15T13:02:35;21.40;93.20
29917;DHT22;16786;49.466;11.068;2022-11-15T13:17:46;18.50;97.80
29917;DHT22;16786;49.466;11.068;2022-11-15T13:23:12;18.00;99.50
29917;DHT22;16786;49.466;11.068;2022-11-15T13:33:35;17.50;99.90
29917;DHT22;16786;49.466;11.068;2022-11-15T13:36:07;17.60;99.90
29917;DHT22;16786;49.466;11.068;2022-11-15T13:38:38;17.70;99.90
29917;DHT22;16786;49.466;11.068;2022-11-15T13:41:20;18.00;99.90
29917;DHT22;16786;49.466;11.068;2022-11-15T13:43:50;18.00;99.90
29917;DHT22;16786;49.466;11.068;2022-11-15T13:46:23;18.00;99.90
29917;DHT22;16786;49.466;11.068;2022-11-15T13:51:51;18.80;99.90
29917;DHT22;16786;49.466;11.068;2022-11-15T13:57:12;20.80;98.90
29917;DHT22;16786;49.466;11.068;2022-11-15T13:59:49;21.80;97.70
29917;DHT22;16786;49.466;11.068;2022-11-15T14:02:21;22.60;96.50
29917;DHT22;16786;49.466;11.068;2022-11-15T14:04:55;22.70;95.90
29917;DHT22;16786;49.466;11.068;2022-11-15T14:07:25;23.00;95.40
29917;DHT22;16786;49.466;11.068;2022-11-15T14:09:53;23.20;95.40
29917;DHT22;16786;49.466;11.068;2022-11-15T14:12:30;23.30;94.80
29917;DHT22;16786;49.466;11.068;2022-11-15T14:15:02;23.90;94.10
29917;DHT22;16786;49.466;11.068;2022-11-15T14:17:44;24.10;93.90
29917;DHT22;16786;49.466;11.068;2022-11-15T14:22:58;24.40;92.90
29917;DHT22;16786;49.466;11.068;2022-11-15T14:25:30;23.80;93.10
29917;DHT22;16786;49.466;11.068;2022-11-15T14:30:53;22.90;94.20
29917;DHT22;16786;49.466;11.068;2022-11-15T14:35:52;22.50;95.00
29917;DHT22;16786;49.466;11.068;2022-11-15T14:38:19;22.80;94.40
29917;DHT22;16786;49.466;11.068;2022-11-15T14:40:47;22.00;95.20
29917;DHT22;16786;49.466;11.068;2022-11-15T14:43:15;21.20;96.00
29917;DHT22;16786;49.466;11.068;2022-11-15T14:45:42;20.20;97.40
29917;DHT22;16786;49.466;11.068;2022-11-15T14:48:10;19.40;98.70
29917;DHT22;16786;49.466;11.068;2022-11-15T14:50:37;18.70;99.90
29917;DHT22;16786;49.466;11.068;2022-11-15T14:53:05;18.10;99.90
29917;DHT22;16786;49.466;11.068;2022-11-15T14:55:35;17.60;99.90
29917;DHT22;16786;49.466;11.068;2022-11-15T14:58:04;17.10;99.90
29917;DHT22;16786;49.466;11.068;2022-11-15T15:00:32;16.70;99.90
29917;DHT22;16786;49.466;11.068;2022-11-15T15:03:02;16.40;99.90
29917;DHT22;16786;49.466;11.068;2022-11-15T15:05:38;16.10;99.90
29917;DHT22;16786;49.466;11.068;2022-11-15T15:08:06;15.80;99.90
29917;DHT22;16786;49.466;11.068;2022-11-15T15:10:44;15.50;99.90
29917;DHT22;16786;49.466;11.068;2022-11-15T15:13:22;15.20;99.90
29917;DHT22;16786;49.466;11.068;2022-11-15T15:15:51;15.00;99.90
29917;DHT22;16786;49.466;11.068;2022-11-15T15:18:19;14.70;99.90
29917;DHT22;16786;49.466;11.068;2022-11-15T15:20:55;14.50;99.90
29917;DHT22;16786;49.466;11.068;2022-11-15T15:23:24;14.30;99.90
29917;DHT22;16786;49.466;11.068;2022-11-15T15:25:52;14.00;99.90
29917;DHT22;16786;49.466;11.068;2022-11-15T15:28:20;13.90;99.90
29917;DHT22;16786;49.466;11.068;2022-11-15T15:30:47;13.60;99.90
29917;DHT22;16786;49.466;11.068;2022-11-15T15:33:15;13.40;99.90
29917;DHT22;16786;49.466;11.068;2022-11-15T15:35:42;13.20;99.90
29917;DHT22;16786;49.466;11.068;2022-11-15T15:38:13;13.10;99.90
29917;DHT22;16786;49.466;11.068;2022-11-15T15:40:40;12.90;99.90
29917;DHT22;16786;49.466;11.068;2022-11-15T15:43:07;12.70;99.90
29917;DHT22;16786;49.466;11.068;2022-11-15T15:45:40;12.60;99.90
29917;DHT22;16786;49.466;11.068;2022-11-15T15:48:16;12.50;99.90
29917;DHT22;16786;49.466;11.068;2022-11-15T15:50:43;12.50;99.90
29917;DHT22;16786;49.466;11.068;2022-11-15T15:53:12;12.40;99.90
29917;DHT22;16786;49.466;11.068;2022-11-15T15:55:39;12.40;99.90
29917;DHT22;16786;49.466;11.068;2022-11-15T15:58:07;12.30;99.90
29917;DHT22;16786;49.466;11.068;2022-11-15T16:00:35;12.30;99.90
29917;DHT22;16786;49.466;11.068;2022-11-15T16:03:03;12.20;99.90
29917;DHT22;16786;49.466;11.068;2022-11-15T16:05:31;12.20;99.90
29917;DHT22;16786;49.466;11.068;2022-11-15T16:07:58;12.20;99.90
29917;DHT22;16786;49.466;11.068;2022-11-15T16:10:28;12.10;99.90
29917;DHT22;16786;49.466;11.068;2022-11-15T16:12:57;12.10;99.90
29917;DHT22;16786;49.466;11.068;2022-11-15T16:15:26;12.10;99.90
29917;DHT22;16786;49.466;11.068;2022-11-15T16:17:56;12.10;99.90
29917;DHT22;16786;49.466;11.068;2022-11-15T16:22:50;12.10;99.90
29917;DHT22;16786;49.466;11.068;2022-11-15T16:25:18;12.00;99.90
29917;DHT22;16786;49.466;11.068;2022-11-15T16:27:45;12.00;99.90
29917;DHT22;16786;49.466;11.068;2022-11-15T16:30:20;11.90;99.90
29917;DHT22;16786;49.466;11.068;2022-11-15T16:32:48;11.90;99.90
29917;DHT22;16786;49.466;11.068;2022-11-15T16:35:16;11.90;99.90
29917;DHT22;16786;49.466;11.068;2022-11-15T16:37:44;11.90;99.90
29917;DHT22;16786;49.466;11.068;2022-11-15T16:40:31;11.90;99.90
29917;DHT22;16786;49.466;11.068;2022-11-15T16:42:59;11.90;99.90
29917;DHT22;16786;49.466;11.068;2022-11-15T16:45:29;11.80;99.90
29917;DHT22;16786;49.466;11.068;2022-11-15T16:47:57;11.80;99.90
29917;DHT22;16786;49.466;11.068;2022-11-15T16:50:27;11.80;99.90
29917;DHT22;16786;49.466;11.068;2022-11-15T16:52:57;11.80;99.90
29917;DHT22;16786;49.466;11.068;2022-11-15T16:55:26;11.80;99.90
29917;DHT22;16786;49.466;11.068;2022-11-15T16:57:55;11.80;99.90
29917;DHT22;16786;49.466;11.068;2022-11-15T17:00:24;11.80;99.90
29917;DHT22;16786;49.466;11.068;2022-11-15T17:02:52;11.70;99.90
29917;DHT22;16786;49.466;11.068;2022-11-15T17:05:21;11.70;99.90
29917;DHT22;16786;49.466;11.068;2022-11-15T17:07:50;11.70;99.90
29917;DHT22;16786;49.466;11.068;2022-11-15T17:10:22;11.70;99.90
29917;DHT22;16786;49.466;11.068;2022-11-15T17:12:50;11.70;99.90
29917;DHT22;16786;49.466;11.068;2022-11-15T17:15:18;11.70;99.90
29917;DHT22;16786;49.466;11.068;2022-11-15T17:17:53;11.70;99.90
29917;DHT22;16786;49.466;11.068;2022-11-15T17:20:23;11.70;99.90
29917;DHT22;16786;49.466;11.068;2022-11-15T17:22:50;11.60;99.90
29917;DHT22;16786;49.466;11.068;2022-11-15T17:25:19;11.60;99.90
29917;DHT22;16786;49.466;11.068;2022-11-15T17:27:48;11.60;99.90
29917;DHT22;16786;49.466;11.068;2022-11-15T17:30:16;11.50;99.90
29917;DHT22;16786;49.466;11.068;2022-11-15T17:32:44;11.50;99.90
29917;DHT22;16786;49.466;11.068;2022-11-15T17:35:14;11.50;99.90
29917;DHT22;16786;49.466;11.068;2022-11-15T17:37:42;11.50;99.90
29917;DHT22;16786;49.466;11.068;2022-11-15T17:40:10;11.40;99.90
29917;DHT22;16786;49.466;11.068;2022-11-15T17:42:40;11.40;99.90
29917;DHT22;16786;49.466;11.068;2022-11-15T17:45:09;11.40;99.90
29917;DHT22;16786;49.466;11.068;2022-11-15T17:47:37;11.40;99.90
29917;DHT22;16786;49.466;11.068;2022-11-15T17:50:04;11.30;99.90
29917;DHT22;16786;49.466;11.068;2022-11-15T17:52:32;11.30;99.90
29917;DHT22;16786;49.466;11.068;2022-11-15T17:54:59;11.30;99.90
29917;DHT22;16786;49.466;11.068;2022-11-15T17:57:27;11.30;99.90
29917;DHT22;16786;49.466;11.068;2022-11-15T17:59:54;11.20;99.90
29917;DHT22;16786;49.466;11.068;2022-11-15T18:02:22;11.10;99.90
29917;DHT22;16786;49.466;11.068;2022-11-15T18:04:49;11.10;99.90
29917;DHT22;16786;49.466;11.068;2022-11-15T18:07:16;11.00;99.90
29917;DHT22;16786;49.466;11.068;2022-11-15T18:09:44;11.00;99.90
29917;DHT22;16786;49.466;11.068;2022-11-15T18:12:11;11.00;99.90
29917;DHT22;16786;49.466;11.068;2022-11-15T18:14:39;10.90;99.90
29917;DHT22;16786;49.466;11.068;2022-11-15T18:17:06;10.90;99.90
29917;DHT22;16786;49.466;11.068;2022-11-15T18:19:34;10.90;99.90
29917;DHT22;16786;49.466;11.068;2022-11-15T18:22:02;10.90;99.90
29917;DHT22;16786;49.466;11.068;2022-11-15T18:24:35;10.90;99.90
29917;DHT22;16786;49.466;11.068;2022-11-15T18:27:05;10.90;99.90
29917;DHT22;16786;49.466;11.068;2022-11-15T18:29:33;10.90;99.90
29917;DHT22;16786;49.466;11.068;2022-11-15T18:32:05;10.90;99.90
29917;DHT22;16786;49.466;11.068;2022-11-15T18:34:38;10.90;99.90
29917;DHT22;16786;49.466;11.068;2022-11-15T18:37:06;10.90;99.90
29917;DHT22;16786;49.466;11.068;2022-11-15T18:39:33;10.90;99.90
29917;DHT22;16786;49.466;11.068;2022-11-15T18:42:01;10.90;99.90
29917;DHT22;16786;49.466;11.068;2022-11-15T18:44:29;10.90;99.90
29917;DHT22;16786;49.466;11.068;2022-11-15T18:46:57;10.90;99.90
29917;DHT22;16786;49.466;11.068;2022-11-15T18:49:25;10.90;99.90
29917;DHT22;16786;49.466;11.068;2022-11-15T18:51:53;10.90;99.90
29917;DHT22;16786;49.466;11.068;2022-11-15T18:54:21;10.90;99.90
29917;DHT22;16786;49.466;11.068;2022-11-15T18:56:55;10.90;99.90
29917;DHT22;16786;49.466;11.068;2022-11-15T18:59:23;10.80;99.90
29917;DHT22;16786;49.466;11.068;2022-11-15T19:01:50;10.80;99.90
29917;DHT22;16786;49.466;11.068;2022-11-15T19:04:19;10.80;99.90
29917;DHT22;16786;49.466;11.068;2022-11-15T19:06:48;10.80;99.90
29917;DHT22;16786;49.466;11.068;2022-11-15T19:09:17;10.80;99.90